sensor_id;sensor_type;location;lat;lon;timestamp;P1;durP1;ratioP1;P2;durP2;ratioP2
75169;SDS011;63749;49.186;9.222;2023-04-03T00:00:07;2.93;;;1.80;;
75169;SDS011;63749;49.186;9.222;2023-04-03T00:02:33;4.07;;;1.90;;
75169;SDS011;63749;49.186;9.222;2023-04-03T00:04:58;3.30;;;1.70;;
75169;SDS011;63749;49.186;9.222;2023-04-03T00:07:23;3.28;;;1.80;;
75169;SDS011;63749;49.186;9.222;2023-04-03T00:09:49;3.87;;;1.77;;
75169;SDS011;63749;49.186;9.222;2023-04-03T00:12:14;7.40;;;2.00;;
75169;SDS011;63749;49.186;9.222;2023-04-03T00:14:40;4.40;;;2.00;;
75169;SDS011;63749;49.186;9.222;2023-04-03T00:17:06;4.37;;;2.00;;
75169;SDS011;63749;49.186;9.222;2023-04-03T00:19:31;4.17;;;1.80;;
75169;SDS011;63749;49.186;9.222;2023-04-03T00:21:57;2.93;;;1.73;;
75169;SDS011;63749;49.186;9.222;2023-04-03T00:24:22;5.23;;;2.10;;
75169;SDS011;63749;49.186;9.222;2023-04-03T00:26:47;3.23;;;1.77;;
75169;SDS011;63749;49.186;9.222;2023-04-03T00:29:13;4.03;;;2.00;;
75169;SDS011;63749;49.186;9.222;2023-04-03T00:31:38;3.60;;;1.73;;
75169;SDS011;63749;49.186;9.222;2023-04-03T00:34:03;4.07;;;1.80;;
75169;SDS011;63749;49.186;9.222;2023-04-03T00:36:29;3.73;;;1.73;;
75169;SDS011;63749;49.186;9.222;2023-04-03T00:38:54;4.40;;;2.10;;
75169;SDS011;63749;49.186;9.222;2023-04-03T00:41:19;4.20;;;2.03;;
75169;SDS011;63749;49.186;9.222;2023-04-03T00:43:46;2.85;;;1.80;;
75169;SDS011;63749;49.186;9.222;2023-04-03T00:46:11;4.50;;;1.90;;
75169;SDS011;63749;49.186;9.222;2023-04-03T00:48:46;5.60;;;2.10;;
75169;SDS011;63749;49.186;9.222;2023-04-03T00:51:14;4.18;;;1.85;;
75169;SDS011;63749;49.186;9.222;2023-04-03T00:53:47;4.27;;;1.80;;
75169;SDS011;63749;49.186;9.222;2023-04-03T00:56:14;5.05;;;1.80;;
75169;SDS011;63749;49.186;9.222;2023-04-03T00:58:53;3.63;;;1.80;;
75169;SDS011;63749;49.186;9.222;2023-04-03T01:01:24;4.45;;;1.80;;
75169;SDS011;63749;49.186;9.222;2023-04-03T01:03:52;2.95;;;1.70;;
75169;SDS011;63749;49.186;9.222;2023-04-03T01:06:20;4.10;;;1.77;;
75169;SDS011;63749;49.186;9.222;2023-04-03T01:08:50;3.08;;;1.33;;
75169;SDS011;63749;49.186;9.222;2023-04-03T01:11:16;4.15;;;1.63;;
75169;SDS011;63749;49.186;9.222;2023-04-03T01:13:41;4.93;;;1.40;;
75169;SDS011;63749;49.186;9.222;2023-04-03T01:16:07;4.17;;;1.87;;
75169;SDS011;63749;49.186;9.222;2023-04-03T01:18:33;4.38;;;1.88;;
75169;SDS011;63749;49.186;9.222;2023-04-03T01:23:58;3.35;;;1.60;;
75169;SDS011;63749;49.186;9.222;2023-04-03T01:26:29;3.03;;;1.70;;
75169;SDS011;63749;49.186;9.222;2023-04-03T01:28:55;2.40;;;1.70;;
75169;SDS011;63749;49.186;9.222;2023-04-03T01:34:05;5.05;;;1.80;;
75169;SDS011;63749;49.186;9.222;2023-04-03T01:36:31;3.13;;;1.70;;
75169;SDS011;63749;49.186;9.222;2023-04-03T01:38:57;3.78;;;1.70;;
75169;SDS011;63749;49.186;9.222;2023-04-03T01:41:24;3.17;;;1.80;;
75169;SDS011;63749;49.186;9.222;2023-04-03T01:43:50;3.10;;;1.50;;
75169;SDS011;63749;49.186;9.222;2023-04-03T01:46:16;3.63;;;1.87;;
75169;SDS011;63749;49.186;9.222;2023-04-03T01:48:42;3.97;;;1.67;;
75169;SDS011;63749;49.186;9.222;2023-04-03T01:51:08;3.63;;;1.80;;
75169;SDS011;63749;49.186;9.222;2023-04-03T01:53:33;4.85;;;1.80;;
75169;SDS011;63749;49.186;9.222;2023-04-03T01:55:59;4.20;;;1.70;;
75169;SDS011;63749;49.186;9.222;2023-04-03T01:58:24;4.83;;;2.00;;
75169;SDS011;63749;49.186;9.222;2023-04-03T02:00:50;2.97;;;1.80;;
75169;SDS011;63749;49.186;9.222;2023-04-03T02:03:16;3.07;;;1.70;;
75169;SDS011;63749;49.186;9.222;2023-04-03T02:05:41;3.00;;;1.80;;
75169;SDS011;63749;49.186;9.222;2023-04-03T02:08:07;2.93;;;1.70;;
75169;SDS011;63749;49.186;9.222;2023-04-03T02:10:32;6.60;;;1.90;;
75169;SDS011;63749;49.186;9.222;2023-04-03T02:12:58;3.87;;;1.87;;
75169;SDS011;63749;49.186;9.222;2023-04-03T02:15:23;3.65;;;2.13;;
75169;SDS011;63749;49.186;9.222;2023-04-03T02:17:49;3.60;;;1.80;;
75169;SDS011;63749;49.186;9.222;2023-04-03T02:20:14;4.27;;;1.80;;
75169;SDS011;63749;49.186;9.222;2023-04-03T02:22:39;3.10;;;1.87;;
75169;SDS011;63749;49.186;9.222;2023-04-03T02:25:05;3.15;;;1.92;;
75169;SDS011;63749;49.186;9.222;2023-04-03T02:27:30;3.53;;;1.53;;
75169;SDS011;63749;49.186;9.222;2023-04-03T02:29:56;4.25;;;1.90;;
75169;SDS011;63749;49.186;9.222;2023-04-03T02:32:22;3.17;;;1.80;;
75169;SDS011;63749;49.186;9.222;2023-04-03T02:34:47;4.20;;;1.97;;
75169;SDS011;63749;49.186;9.222;2023-04-03T02:37:13;4.75;;;2.00;;
75169;SDS011;63749;49.186;9.222;2023-04-03T02:39:38;4.87;;;2.23;;
75169;SDS011;63749;49.186;9.222;2023-04-03T02:42:04;3.50;;;1.87;;
75169;SDS011;63749;49.186;9.222;2023-04-03T02:44:29;3.97;;;1.90;;
75169;SDS011;63749;49.186;9.222;2023-04-03T02:46:55;3.80;;;1.70;;
75169;SDS011;63749;49.186;9.222;2023-04-03T02:49:20;4.00;;;2.03;;
75169;SDS011;63749;49.186;9.222;2023-04-03T02:51:45;4.50;;;1.90;;
75169;SDS011;63749;49.186;9.222;2023-04-03T02:54:11;6.63;;;2.10;;
75169;SDS011;63749;49.186;9.222;2023-04-03T02:56:36;4.03;;;1.80;;
75169;SDS011;63749;49.186;9.222;2023-04-03T02:59:01;5.80;;;1.85;;
75169;SDS011;63749;49.186;9.222;2023-04-03T03:01:27;4.43;;;1.80;;
75169;SDS011;63749;49.186;9.222;2023-04-03T03:03:56;3.50;;;2.00;;
75169;SDS011;63749;49.186;9.222;2023-04-03T03:06:22;5.40;;;2.07;;
75169;SDS011;63749;49.186;9.222;2023-04-03T03:08:47;4.53;;;2.17;;
75169;SDS011;63749;49.186;9.222;2023-04-03T03:11:12;4.73;;;2.20;;
75169;SDS011;63749;49.186;9.222;2023-04-03T03:13:38;4.00;;;1.80;;
75169;SDS011;63749;49.186;9.222;2023-04-03T03:16:04;3.00;;;1.87;;
75169;SDS011;63749;49.186;9.222;2023-04-03T03:18:29;3.85;;;1.98;;
75169;SDS011;63749;49.186;9.222;2023-04-03T03:20:56;5.67;;;2.10;;
75169;SDS011;63749;49.186;9.222;2023-04-03T03:23:24;4.75;;;2.08;;
75169;SDS011;63749;49.186;9.222;2023-04-03T03:25:54;4.38;;;1.98;;
75169;SDS011;63749;49.186;9.222;2023-04-03T03:28:24;4.25;;;2.13;;
75169;SDS011;63749;49.186;9.222;2023-04-03T03:30:49;5.67;;;2.57;;
75169;SDS011;63749;49.186;9.222;2023-04-03T03:33:15;3.30;;;1.93;;
75169;SDS011;63749;49.186;9.222;2023-04-03T03:35:42;5.15;;;1.65;;
75169;SDS011;63749;49.186;9.222;2023-04-03T03:38:08;4.63;;;2.10;;
75169;SDS011;63749;49.186;9.222;2023-04-03T03:40:33;6.13;;;2.27;;
75169;SDS011;63749;49.186;9.222;2023-04-03T03:42:58;3.57;;;2.20;;
75169;SDS011;63749;49.186;9.222;2023-04-03T03:45:24;4.70;;;2.20;;
75169;SDS011;63749;49.186;9.222;2023-04-03T03:47:50;4.20;;;2.20;;
75169;SDS011;63749;49.186;9.222;2023-04-03T03:50:15;4.20;;;1.80;;
75169;SDS011;63749;49.186;9.222;2023-04-03T03:52:40;4.35;;;2.45;;
75169;SDS011;63749;49.186;9.222;2023-04-03T03:55:06;4.07;;;2.30;;
75169;SDS011;63749;49.186;9.222;2023-04-03T03:57:32;4.75;;;2.35;;
75169;SDS011;63749;49.186;9.222;2023-04-03T03:59:57;4.37;;;2.40;;
75169;SDS011;63749;49.186;9.222;2023-04-03T04:02:23;4.13;;;2.13;;
75169;SDS011;63749;49.186;9.222;2023-04-03T04:04:48;4.20;;;2.20;;
75169;SDS011;63749;49.186;9.222;2023-04-03T04:07:14;6.30;;;2.45;;
75169;SDS011;63749;49.186;9.222;2023-04-03T04:09:39;4.90;;;2.30;;
75169;SDS011;63749;49.186;9.222;2023-04-03T04:12:04;5.87;;;2.10;;
75169;SDS011;63749;49.186;9.222;2023-04-03T04:14:30;4.43;;;2.40;;
75169;SDS011;63749;49.186;9.222;2023-04-03T04:16:56;4.70;;;2.13;;
75169;SDS011;63749;49.186;9.222;2023-04-03T04:19:21;4.57;;;2.60;;
75169;SDS011;63749;49.186;9.222;2023-04-03T04:21:47;4.28;;;2.50;;
75169;SDS011;63749;49.186;9.222;2023-04-03T04:24:12;3.50;;;2.23;;
75169;SDS011;63749;49.186;9.222;2023-04-03T04:26:37;4.97;;;2.50;;
75169;SDS011;63749;49.186;9.222;2023-04-03T04:29:03;6.50;;;2.63;;
75169;SDS011;63749;49.186;9.222;2023-04-03T04:31:28;5.10;;;2.30;;
75169;SDS011;63749;49.186;9.222;2023-04-03T04:33:53;4.73;;;2.60;;
75169;SDS011;63749;49.186;9.222;2023-04-03T04:36:19;5.22;;;2.40;;
75169;SDS011;63749;49.186;9.222;2023-04-03T04:38:44;6.20;;;2.73;;
75169;SDS011;63749;49.186;9.222;2023-04-03T04:41:10;6.90;;;2.90;;
75169;SDS011;63749;49.186;9.222;2023-04-03T04:43:35;5.28;;;2.60;;
75169;SDS011;63749;49.186;9.222;2023-04-03T04:46:05;7.60;;;2.60;;
75169;SDS011;63749;49.186;9.222;2023-04-03T04:48:33;6.07;;;2.80;;
75169;SDS011;63749;49.186;9.222;2023-04-03T04:50:59;4.93;;;2.60;;
75169;SDS011;63749;49.186;9.222;2023-04-03T04:53:25;10.57;;;2.97;;
75169;SDS011;63749;49.186;9.222;2023-04-03T04:55:51;5.07;;;2.57;;
75169;SDS011;63749;49.186;9.222;2023-04-03T04:58:16;4.85;;;2.55;;
75169;SDS011;63749;49.186;9.222;2023-04-03T05:00:42;5.07;;;2.80;;
75169;SDS011;63749;49.186;9.222;2023-04-03T05:03:07;6.97;;;3.23;;
75169;SDS011;63749;49.186;9.222;2023-04-03T05:05:33;6.10;;;2.92;;
75169;SDS011;63749;49.186;9.222;2023-04-03T05:07:58;5.03;;;3.07;;
75169;SDS011;63749;49.186;9.222;2023-04-03T05:10:24;5.50;;;3.10;;
75169;SDS011;63749;49.186;9.222;2023-04-03T05:12:50;6.00;;;2.97;;
75169;SDS011;63749;49.186;9.222;2023-04-03T05:15:15;4.90;;;2.83;;
75169;SDS011;63749;49.186;9.222;2023-04-03T05:17:41;4.28;;;2.70;;
75169;SDS011;63749;49.186;9.222;2023-04-03T05:20:06;4.50;;;2.80;;
75169;SDS011;63749;49.186;9.222;2023-04-03T05:22:32;7.10;;;3.47;;
75169;SDS011;63749;49.186;9.222;2023-04-03T05:24:58;6.47;;;3.50;;
75169;SDS011;63749;49.186;9.222;2023-04-03T05:27:23;5.23;;;2.90;;
75169;SDS011;63749;49.186;9.222;2023-04-03T05:29:49;5.05;;;3.00;;
75169;SDS011;63749;49.186;9.222;2023-04-03T05:32:14;4.47;;;2.87;;
75169;SDS011;63749;49.186;9.222;2023-04-03T05:34:40;5.97;;;3.13;;
75169;SDS011;63749;49.186;9.222;2023-04-03T05:37:05;6.87;;;3.73;;
75169;SDS011;63749;49.186;9.222;2023-04-03T05:39:33;6.00;;;3.28;;
75169;SDS011;63749;49.186;9.222;2023-04-03T05:41:59;5.77;;;3.20;;
75169;SDS011;63749;49.186;9.222;2023-04-03T05:44:24;6.30;;;3.00;;
75169;SDS011;63749;49.186;9.222;2023-04-03T05:46:50;6.77;;;3.20;;
75169;SDS011;63749;49.186;9.222;2023-04-03T05:49:15;6.80;;;3.50;;
75169;SDS011;63749;49.186;9.222;2023-04-03T05:51:41;5.13;;;3.20;;
75169;SDS011;63749;49.186;9.222;2023-04-03T05:54:11;6.50;;;3.40;;
75169;SDS011;63749;49.186;9.222;2023-04-03T05:56:40;5.57;;;3.28;;
75169;SDS011;63749;49.186;9.222;2023-04-03T05:59:06;8.83;;;3.60;;
75169;SDS011;63749;49.186;9.222;2023-04-03T06:01:32;7.97;;;3.28;;
75169;SDS011;63749;49.186;9.222;2023-04-03T06:03:59;7.50;;;3.80;;
75169;SDS011;63749;49.186;9.222;2023-04-03T06:06:24;5.43;;;3.60;;
75169;SDS011;63749;49.186;9.222;2023-04-03T06:08:49;5.27;;;3.33;;
75169;SDS011;63749;49.186;9.222;2023-04-03T06:11:15;7.28;;;3.47;;
75169;SDS011;63749;49.186;9.222;2023-04-03T06:13:41;6.03;;;3.37;;
75169;SDS011;63749;49.186;9.222;2023-04-03T06:16:07;6.87;;;3.50;;
75169;SDS011;63749;49.186;9.222;2023-04-03T06:18:36;7.07;;;3.70;;
75169;SDS011;63749;49.186;9.222;2023-04-03T06:21:02;9.10;;;4.00;;
75169;SDS011;63749;49.186;9.222;2023-04-03T06:23:28;8.50;;;4.35;;
75169;SDS011;63749;49.186;9.222;2023-04-03T06:25:53;8.23;;;4.13;;
75169;SDS011;63749;49.186;9.222;2023-04-03T06:28:19;8.30;;;3.92;;
75169;SDS011;63749;49.186;9.222;2023-04-03T06:30:45;11.33;;;4.60;;
75169;SDS011;63749;49.186;9.222;2023-04-03T06:33:10;7.57;;;4.25;;
75169;SDS011;63749;49.186;9.222;2023-04-03T06:35:35;7.37;;;3.73;;
75169;SDS011;63749;49.186;9.222;2023-04-03T06:38:03;7.07;;;3.67;;
75169;SDS011;63749;49.186;9.222;2023-04-03T06:40:34;10.23;;;3.73;;
75169;SDS011;63749;49.186;9.222;2023-04-03T06:43:00;8.70;;;4.05;;
75169;SDS011;63749;49.186;9.222;2023-04-03T06:45:26;6.38;;;4.05;;
75169;SDS011;63749;49.186;9.222;2023-04-03T06:47:52;9.32;;;4.03;;
75169;SDS011;63749;49.186;9.222;2023-04-03T06:50:18;9.37;;;3.70;;
75169;SDS011;63749;49.186;9.222;2023-04-03T06:52:44;7.53;;;4.18;;
75169;SDS011;63749;49.186;9.222;2023-04-03T06:55:10;7.43;;;3.92;;
75169;SDS011;63749;49.186;9.222;2023-04-03T06:57:36;9.40;;;4.20;;
75169;SDS011;63749;49.186;9.222;2023-04-03T07:00:02;5.75;;;3.90;;
75169;SDS011;63749;49.186;9.222;2023-04-03T07:02:29;6.65;;;3.90;;
75169;SDS011;63749;49.186;9.222;2023-04-03T07:04:54;10.13;;;4.30;;
75169;SDS011;63749;49.186;9.222;2023-04-03T07:07:20;7.23;;;4.40;;
75169;SDS011;63749;49.186;9.222;2023-04-03T07:09:45;7.37;;;4.13;;
75169;SDS011;63749;49.186;9.222;2023-04-03T07:12:12;8.63;;;4.10;;
75169;SDS011;63749;49.186;9.222;2023-04-03T07:14:38;7.83;;;4.07;;
75169;SDS011;63749;49.186;9.222;2023-04-03T07:17:03;6.60;;;3.97;;
75169;SDS011;63749;49.186;9.222;2023-04-03T07:19:29;4.47;;;3.28;;
75169;SDS011;63749;49.186;9.222;2023-04-03T07:21:54;7.07;;;3.80;;
75169;SDS011;63749;49.186;9.222;2023-04-03T07:24:20;6.70;;;4.00;;
75169;SDS011;63749;49.186;9.222;2023-04-03T07:26:48;6.37;;;3.93;;
75169;SDS011;63749;49.186;9.222;2023-04-03T07:29:14;8.27;;;3.97;;
75169;SDS011;63749;49.186;9.222;2023-04-03T07:31:40;5.40;;;3.73;;
75169;SDS011;63749;49.186;9.222;2023-04-03T07:34:06;6.47;;;3.90;;
75169;SDS011;63749;49.186;9.222;2023-04-03T07:36:31;6.33;;;3.47;;
75169;SDS011;63749;49.186;9.222;2023-04-03T07:38:58;5.60;;;3.40;;
75169;SDS011;63749;49.186;9.222;2023-04-03T07:41:23;7.27;;;3.80;;
75169;SDS011;63749;49.186;9.222;2023-04-03T07:43:49;6.45;;;3.55;;
75169;SDS011;63749;49.186;9.222;2023-04-03T07:46:15;7.33;;;3.53;;
75169;SDS011;63749;49.186;9.222;2023-04-03T07:48:42;5.68;;;3.08;;
75169;SDS011;63749;49.186;9.222;2023-04-03T07:51:08;6.57;;;3.28;;
75169;SDS011;63749;49.186;9.222;2023-04-03T07:53:34;7.47;;;3.40;;
75169;SDS011;63749;49.186;9.222;2023-04-03T07:56:00;6.65;;;3.55;;
75169;SDS011;63749;49.186;9.222;2023-04-03T07:58:27;8.73;;;3.83;;
75169;SDS011;63749;49.186;9.222;2023-04-03T08:00:53;5.90;;;3.00;;
75169;SDS011;63749;49.186;9.222;2023-04-03T08:03:18;7.30;;;2.87;;
75169;SDS011;63749;49.186;9.222;2023-04-03T08:05:45;5.60;;;2.70;;
75169;SDS011;63749;49.186;9.222;2023-04-03T08:08:12;7.47;;;3.17;;
75169;SDS011;63749;49.186;9.222;2023-04-03T08:10:38;6.15;;;2.83;;
75169;SDS011;63749;49.186;9.222;2023-04-03T08:13:05;5.85;;;2.78;;
75169;SDS011;63749;49.186;9.222;2023-04-03T08:15:30;5.20;;;2.80;;
75169;SDS011;63749;49.186;9.222;2023-04-03T08:17:56;5.40;;;2.87;;
75169;SDS011;63749;49.186;9.222;2023-04-03T08:20:22;6.60;;;2.70;;
75169;SDS011;63749;49.186;9.222;2023-04-03T08:22:48;5.63;;;2.80;;
75169;SDS011;63749;49.186;9.222;2023-04-03T08:25:13;8.07;;;3.53;;
75169;SDS011;63749;49.186;9.222;2023-04-03T08:27:38;5.67;;;2.70;;
75169;SDS011;63749;49.186;9.222;2023-04-03T08:30:04;4.45;;;2.40;;
75169;SDS011;63749;49.186;9.222;2023-04-03T08:32:32;5.40;;;2.80;;
75169;SDS011;63749;49.186;9.222;2023-04-03T08:34:59;4.80;;;2.67;;
75169;SDS011;63749;49.186;9.222;2023-04-03T08:37:25;10.00;;;2.80;;
75169;SDS011;63749;49.186;9.222;2023-04-03T08:39:50;6.15;;;2.70;;
75169;SDS011;63749;49.186;9.222;2023-04-03T08:42:19;5.60;;;2.87;;
75169;SDS011;63749;49.186;9.222;2023-04-03T08:45:35;9.32;;;2.70;;
75169;SDS011;63749;49.186;9.222;2023-04-03T08:50:41;4.73;;;2.70;;
75169;SDS011;63749;49.186;9.222;2023-04-03T08:53:17;5.65;;;2.90;;
75169;SDS011;63749;49.186;9.222;2023-04-03T08:55:46;6.10;;;2.72;;
75169;SDS011;63749;49.186;9.222;2023-04-03T09:00:58;4.88;;;2.47;;
75169;SDS011;63749;49.186;9.222;2023-04-03T09:03:28;5.33;;;2.60;;
75169;SDS011;63749;49.186;9.222;2023-04-03T09:08:22;7.23;;;2.70;;
75169;SDS011;63749;49.186;9.222;2023-04-03T09:10:52;8.38;;;2.90;;
75169;SDS011;63749;49.186;9.222;2023-04-03T09:15:59;5.15;;;2.80;;
75169;SDS011;63749;49.186;9.222;2023-04-03T09:18:30;3.78;;;2.60;;
75169;SDS011;63749;49.186;9.222;2023-04-03T09:21:07;6.43;;;2.60;;
75169;SDS011;63749;49.186;9.222;2023-04-03T09:23:42;5.30;;;3.08;;
75169;SDS011;63749;49.186;9.222;2023-04-03T09:26:15;5.18;;;3.05;;
75169;SDS011;63749;49.186;9.222;2023-04-03T09:28:44;4.97;;;2.45;;
75169;SDS011;63749;49.186;9.222;2023-04-03T09:33:42;5.37;;;2.70;;
75169;SDS011;63749;49.186;9.222;2023-04-03T09:36:07;5.00;;;2.67;;
75169;SDS011;63749;49.186;9.222;2023-04-03T09:38:32;5.17;;;2.70;;
75169;SDS011;63749;49.186;9.222;2023-04-03T09:41:03;5.35;;;2.50;;
75169;SDS011;63749;49.186;9.222;2023-04-03T09:43:33;6.33;;;2.63;;
75169;SDS011;63749;49.186;9.222;2023-04-03T09:46:15;4.32;;;2.58;;
75169;SDS011;63749;49.186;9.222;2023-04-03T09:49:01;4.07;;;2.53;;
75169;SDS011;63749;49.186;9.222;2023-04-03T09:51:28;6.90;;;3.38;;
75169;SDS011;63749;49.186;9.222;2023-04-03T09:53:55;7.95;;;2.80;;
75169;SDS011;63749;49.186;9.222;2023-04-03T09:56:22;6.87;;;3.03;;
75169;SDS011;63749;49.186;9.222;2023-04-03T09:59:06;4.68;;;2.85;;
75169;SDS011;63749;49.186;9.222;2023-04-03T10:01:39;7.80;;;2.30;;
75169;SDS011;63749;49.186;9.222;2023-04-03T10:04:08;4.57;;;2.50;;
75169;SDS011;63749;49.186;9.222;2023-04-03T10:06:36;4.93;;;2.80;;
75169;SDS011;63749;49.186;9.222;2023-04-03T10:09:13;4.67;;;2.40;;
75169;SDS011;63749;49.186;9.222;2023-04-03T10:14:37;7.70;;;2.72;;
75169;SDS011;63749;49.186;9.222;2023-04-03T10:23:06;4.57;;;2.60;;
75169;SDS011;63749;49.186;9.222;2023-04-03T10:31:34;5.53;;;2.60;;
75169;SDS011;63749;49.186;9.222;2023-04-03T10:34:11;5.72;;;3.03;;
75169;SDS011;63749;49.186;9.222;2023-04-03T10:42:08;3.97;;;2.60;;
75169;SDS011;63749;49.186;9.222;2023-04-03T10:52:41;4.43;;;2.75;;
75169;SDS011;63749;49.186;9.222;2023-04-03T10:57:38;5.50;;;2.50;;
75169;SDS011;63749;49.186;9.222;2023-04-03T11:00:19;5.47;;;2.67;;
75169;SDS011;63749;49.186;9.222;2023-04-03T11:03:00;4.82;;;2.20;;
75169;SDS011;63749;49.186;9.222;2023-04-03T11:05:41;4.80;;;2.42;;
75169;SDS011;63749;49.186;9.222;2023-04-03T11:08:11;3.70;;;2.17;;
75169;SDS011;63749;49.186;9.222;2023-04-03T11:10:48;3.15;;;1.95;;
75169;SDS011;63749;49.186;9.222;2023-04-03T11:13:17;6.30;;;2.33;;
75169;SDS011;63749;49.186;9.222;2023-04-03T11:15:46;4.35;;;2.30;;
75169;SDS011;63749;49.186;9.222;2023-04-03T11:18:19;5.20;;;2.23;;
75169;SDS011;63749;49.186;9.222;2023-04-03T11:20:57;2.38;;;1.75;;
75169;SDS011;63749;49.186;9.222;2023-04-03T11:23:28;3.75;;;2.33;;
75169;SDS011;63749;49.186;9.222;2023-04-03T11:26:04;3.13;;;1.80;;
75169;SDS011;63749;49.186;9.222;2023-04-03T11:28:33;2.88;;;1.80;;
75169;SDS011;63749;49.186;9.222;2023-04-03T11:31:11;3.73;;;1.97;;
75169;SDS011;63749;49.186;9.222;2023-04-03T11:36:53;4.30;;;2.10;;
75169;SDS011;63749;49.186;9.222;2023-04-03T11:39:34;3.80;;;2.22;;
75169;SDS011;63749;49.186;9.222;2023-04-03T11:42:14;5.45;;;2.60;;
75169;SDS011;63749;49.186;9.222;2023-04-03T11:45:16;5.07;;;2.50;;
75169;SDS011;63749;49.186;9.222;2023-04-03T11:47:43;5.78;;;2.30;;
75169;SDS011;63749;49.186;9.222;2023-04-03T12:05:48;5.40;;;2.70;;
75169;SDS011;63749;49.186;9.222;2023-04-03T12:08:16;5.57;;;2.30;;
75169;SDS011;63749;49.186;9.222;2023-04-03T12:16:02;4.03;;;2.50;;
75169;SDS011;63749;49.186;9.222;2023-04-03T12:18:39;5.73;;;2.70;;
75169;SDS011;63749;49.186;9.222;2023-04-03T12:21:16;4.65;;;2.70;;
75169;SDS011;63749;49.186;9.222;2023-04-03T12:26:48;5.20;;;2.15;;
75169;SDS011;63749;49.186;9.222;2023-04-03T12:29:33;5.50;;;1.92;;
75169;SDS011;63749;49.186;9.222;2023-04-03T12:37:20;5.72;;;2.45;;
75169;SDS011;63749;49.186;9.222;2023-04-03T12:39:55;5.70;;;2.45;;
75169;SDS011;63749;49.186;9.222;2023-04-03T12:45:29;4.10;;;2.00;;
75169;SDS011;63749;49.186;9.222;2023-04-03T12:48:17;4.43;;;2.00;;
75169;SDS011;63749;49.186;9.222;2023-04-03T12:50:47;3.65;;;2.03;;
75169;SDS011;63749;49.186;9.222;2023-04-03T12:53:21;3.47;;;1.90;;
75169;SDS011;63749;49.186;9.222;2023-04-03T12:56:18;3.42;;;2.10;;
75169;SDS011;63749;49.186;9.222;2023-04-03T12:58:46;4.37;;;2.13;;
75169;SDS011;63749;49.186;9.222;2023-04-03T13:01:16;4.70;;;2.33;;
75169;SDS011;63749;49.186;9.222;2023-04-03T13:03:47;3.65;;;2.20;;
75169;SDS011;63749;49.186;9.222;2023-04-03T13:06:18;4.70;;;2.50;;
75169;SDS011;63749;49.186;9.222;2023-04-03T13:08:52;4.40;;;3.08;;
75169;SDS011;63749;49.186;9.222;2023-04-03T13:11:19;5.67;;;2.60;;
75169;SDS011;63749;49.186;9.222;2023-04-03T13:13:59;4.55;;;2.90;;
75169;SDS011;63749;49.186;9.222;2023-04-03T13:16:28;4.47;;;2.30;;
75169;SDS011;63749;49.186;9.222;2023-04-03T13:18:54;4.70;;;2.92;;
75169;SDS011;63749;49.186;9.222;2023-04-03T13:21:25;4.45;;;2.47;;
75169;SDS011;63749;49.186;9.222;2023-04-03T13:23:56;4.80;;;2.40;;
75169;SDS011;63749;49.186;9.222;2023-04-03T13:26:25;3.30;;;2.20;;
75169;SDS011;63749;49.186;9.222;2023-04-03T13:29:00;5.97;;;2.42;;
75169;SDS011;63749;49.186;9.222;2023-04-03T13:31:29;3.80;;;2.30;;
75169;SDS011;63749;49.186;9.222;2023-04-03T13:37:11;5.97;;;3.30;;
75169;SDS011;63749;49.186;9.222;2023-04-03T13:39:26;4.85;;;3.10;;
75169;SDS011;63749;49.186;9.222;2023-04-03T13:41:57;6.95;;;3.20;;
75169;SDS011;63749;49.186;9.222;2023-04-03T13:49:31;4.10;;;2.60;;
75169;SDS011;63749;49.186;9.222;2023-04-03T13:51:59;3.40;;;3.08;;
75169;SDS011;63749;49.186;9.222;2023-04-03T13:54:31;3.77;;;2.70;;
75169;SDS011;63749;49.186;9.222;2023-04-03T13:57:00;4.80;;;3.20;;
75169;SDS011;63749;49.186;9.222;2023-04-03T13:59:28;4.63;;;3.28;;
75169;SDS011;63749;49.186;9.222;2023-04-03T14:04:28;5.18;;;3.45;;
75169;SDS011;63749;49.186;9.222;2023-04-03T14:06:54;5.83;;;3.43;;
75169;SDS011;63749;49.186;9.222;2023-04-03T14:09:20;5.88;;;3.60;;
75169;SDS011;63749;49.186;9.222;2023-04-03T14:11:48;3.67;;;3.20;;
75169;SDS011;63749;49.186;9.222;2023-04-03T14:14:21;5.68;;;3.25;;
75169;SDS011;63749;49.186;9.222;2023-04-03T14:16:51;6.57;;;3.40;;
75169;SDS011;63749;49.186;9.222;2023-04-03T14:19:21;6.85;;;3.78;;
75169;SDS011;63749;49.186;9.222;2023-04-03T14:21:49;4.57;;;3.25;;
75169;SDS011;63749;49.186;9.222;2023-04-03T14:24:16;4.63;;;3.75;;
75169;SDS011;63749;49.186;9.222;2023-04-03T14:26:42;4.53;;;3.80;;
75169;SDS011;63749;49.186;9.222;2023-04-03T14:29:09;4.80;;;3.53;;
75169;SDS011;63749;49.186;9.222;2023-04-03T14:31:36;4.95;;;3.67;;
75169;SDS011;63749;49.186;9.222;2023-04-03T14:34:01;5.27;;;3.70;;
75169;SDS011;63749;49.186;9.222;2023-04-03T14:36:27;4.68;;;3.80;;
75169;SDS011;63749;49.186;9.222;2023-04-03T14:38:54;6.00;;;3.90;;
75169;SDS011;63749;49.186;9.222;2023-04-03T14:41:21;5.30;;;4.00;;
75169;SDS011;63749;49.186;9.222;2023-04-03T14:43:48;4.43;;;3.60;;
75169;SDS011;63749;49.186;9.222;2023-04-03T14:46:16;5.82;;;3.70;;
75169;SDS011;63749;49.186;9.222;2023-04-03T14:49:02;4.47;;;3.08;;
75169;SDS011;63749;49.186;9.222;2023-04-03T14:51:33;3.55;;;2.53;;
75169;SDS011;63749;49.186;9.222;2023-04-03T14:53:59;5.40;;;2.67;;
75169;SDS011;63749;49.186;9.222;2023-04-03T14:56:26;5.93;;;3.85;;
75169;SDS011;63749;49.186;9.222;2023-04-03T14:58:54;5.88;;;3.92;;
75169;SDS011;63749;49.186;9.222;2023-04-03T15:01:21;5.35;;;3.70;;
75169;SDS011;63749;49.186;9.222;2023-04-03T15:03:47;5.40;;;3.87;;
75169;SDS011;63749;49.186;9.222;2023-04-03T15:06:12;4.80;;;3.70;;
75169;SDS011;63749;49.186;9.222;2023-04-03T15:08:39;5.13;;;3.80;;
75169;SDS011;63749;49.186;9.222;2023-04-03T15:11:06;5.00;;;3.80;;
75169;SDS011;63749;49.186;9.222;2023-04-03T15:13:32;4.97;;;3.73;;
75169;SDS011;63749;49.186;9.222;2023-04-03T15:15:57;5.00;;;3.87;;
75169;SDS011;63749;49.186;9.222;2023-04-03T15:18:24;7.20;;;3.60;;
75169;SDS011;63749;49.186;9.222;2023-04-03T15:20:52;4.93;;;3.58;;
75169;SDS011;63749;49.186;9.222;2023-04-03T15:23:18;5.35;;;3.80;;
75169;SDS011;63749;49.186;9.222;2023-04-03T15:25:44;5.10;;;3.60;;
75169;SDS011;63749;49.186;9.222;2023-04-03T15:28:18;4.75;;;3.65;;
75169;SDS011;63749;49.186;9.222;2023-04-03T15:30:50;5.90;;;3.88;;
75169;SDS011;63749;49.186;9.222;2023-04-03T15:33:16;4.88;;;3.90;;
75169;SDS011;63749;49.186;9.222;2023-04-03T15:35:41;4.97;;;2.90;;
75169;SDS011;63749;49.186;9.222;2023-04-03T15:38:07;4.10;;;2.50;;
75169;SDS011;63749;49.186;9.222;2023-04-03T15:40:33;3.40;;;2.53;;
75169;SDS011;63749;49.186;9.222;2023-04-03T15:42:58;5.60;;;2.50;;
75169;SDS011;63749;49.186;9.222;2023-04-03T15:45:24;3.50;;;2.10;;
75169;SDS011;63749;49.186;9.222;2023-04-03T15:47:50;4.43;;;3.27;;
75169;SDS011;63749;49.186;9.222;2023-04-03T15:50:15;4.22;;;3.15;;
75169;SDS011;63749;49.186;9.222;2023-04-03T15:52:41;5.03;;;3.10;;
75169;SDS011;63749;49.186;9.222;2023-04-03T15:55:06;4.73;;;3.40;;
75169;SDS011;63749;49.186;9.222;2023-04-03T15:57:32;6.32;;;3.67;;
75169;SDS011;63749;49.186;9.222;2023-04-03T15:59:57;5.93;;;3.60;;
75169;SDS011;63749;49.186;9.222;2023-04-03T16:02:23;4.23;;;3.40;;
75169;SDS011;63749;49.186;9.222;2023-04-03T16:04:49;3.65;;;3.10;;
75169;SDS011;63749;49.186;9.222;2023-04-03T16:07:15;3.85;;;2.20;;
75169;SDS011;63749;49.186;9.222;2023-04-03T16:09:40;4.83;;;2.90;;
75169;SDS011;63749;49.186;9.222;2023-04-03T16:12:05;2.77;;;2.00;;
75169;SDS011;63749;49.186;9.222;2023-04-03T16:14:31;4.80;;;2.03;;
75169;SDS011;63749;49.186;9.222;2023-04-03T16:16:57;3.80;;;1.70;;
75169;SDS011;63749;49.186;9.222;2023-04-03T16:19:23;6.63;;;3.28;;
75169;SDS011;63749;49.186;9.222;2023-04-03T16:21:49;3.93;;;3.23;;
75169;SDS011;63749;49.186;9.222;2023-04-03T16:24:15;4.35;;;3.20;;
75169;SDS011;63749;49.186;9.222;2023-04-03T16:26:40;5.10;;;3.00;;